Weather History for Glendive, MT

Change the Weather History Date:

Monday, September 16, 2013

  Actual Average Record
Temperature  
Mean Temperature 64 °F -  
Max Temperature 80 °F 68 °F 91 °F (1998)
Min Temperature 48 °F 43 °F 37 °F (1999)
Degree Days  
Heating Degree Days 1    
Growing Degree Days 14 (Base 50)    
Moisture  
Dew Point 51 °F    
Average Humidity 61    
Maximum Humidity 87    
Minimum Humidity 39    
Precipitation  
Precipitation 0.00 in - - ()
Sea Level Pressure  
Sea Level Pressure 29.95 in    
Wind  
Wind Speed 11 mph (SSE)    
Max Wind Speed 23 mph    
Max Gust Speed 30 mph    
Visibility 10 miles    
Events      
Averages and records for this station are not official NWS values.
T = Trace of Precipitation, MM = Missing Value Source: NWS Daily Summary

Daily Weather History Graph

Daily Weather History Graph

Search for Another Location

Airport:

Trip Planner

Search our weather history database for the weather conditions in past years. The results will help you decide how hot, cold, wet, or windy it might be!

Date:

Astronomy

Sep. 16, 2013 Rise Set
Actual Time 6:38 AM MDT 7:08 PM MDT
Civil Twilight 6:07 AM MDT 7:39 PM MDT
Nautical Twilight 5:31 AM MDT 8:15 PM MDT
Astronomical Twilight 4:53 AM MDT 8:52 PM MDT
Moon 5:26 PM MDT (9/16) 3:17 AM MDT (9/16)
Length of Visible Light 13h 31m
Length of Day
12h 29m
Waxing Gibbous, 90% of the Moon is Illuminated
Sep 16
Waxing Gibbous
Sep 19
Full
Sep 26
Last Quarter
Oct 4
New
Oct 11
First Quarter

Hourly Weather History & Observations

Time (MDT) Temp. Heat Index Dew Point Humidity Pressure Visibility Wind Dir Wind Speed Gust Speed Precip Events Conditions
12:15 AM 55.4 °F - 44.6 °F 67% 30.15 in 10.0 mi SSE 6.9 mph - N/A   Clear
12:35 AM 53.6 °F - 44.6 °F 72% 30.14 in 10.0 mi SSE 5.8 mph - N/A   Clear
12:55 AM 53.6 °F - 44.6 °F 72% 30.13 in 10.0 mi SSE 6.9 mph - N/A   Clear
1:15 AM 53.6 °F - 44.6 °F 72% 30.13 in 10.0 mi SSE 8.1 mph - N/A   Clear
1:55 AM 55.4 °F - 46.4 °F 72% 30.12 in 10.0 mi SSE 5.8 mph - N/A   Clear
2:15 AM 53.6 °F - 46.4 °F 77% 30.11 in 10.0 mi SSE 8.1 mph - N/A   Clear
2:35 AM 53.6 °F - 46.4 °F 77% 30.10 in 10.0 mi SSE 8.1 mph - N/A   Clear
2:55 AM 53.6 °F - 46.4 °F 77% 30.10 in 10.0 mi SSE 8.1 mph - N/A   Clear
3:15 AM 51.8 °F - 46.4 °F 82% 30.10 in 10.0 mi South 8.1 mph - N/A   Clear
3:35 AM 51.8 °F - 46.4 °F 82% 30.09 in 10.0 mi South 9.2 mph - N/A   Clear
3:55 AM 51.8 °F - 44.6 °F 76% 30.09 in 10.0 mi SSW 4.6 mph - N/A   Clear
4:15 AM 50.0 °F - 44.6 °F 82% 30.09 in 10.0 mi SSW 5.8 mph - N/A   Clear
4:35 AM 51.8 °F - 46.4 °F 82% 30.08 in 10.0 mi SSE 8.1 mph - N/A   Clear
4:55 AM 48.2 °F - 44.6 °F 87% 30.08 in 10.0 mi SSE 3.5 mph - N/A   Clear
5:15 AM 51.8 °F - 46.4 °F 82% 30.08 in 10.0 mi SSE 8.1 mph - N/A   Clear
5:55 AM 51.8 °F - 46.4 °F 82% 30.07 in 10.0 mi SSE 9.2 mph - N/A   Clear
6:35 AM 53.6 °F - 48.2 °F 82% 30.06 in 10.0 mi SSE 9.2 mph - N/A   Clear
6:55 AM 53.6 °F - 48.2 °F 82% 30.06 in 10.0 mi SSE 8.1 mph - N/A   Clear
7:15 AM 53.6 °F - 48.2 °F 82% 30.05 in 10.0 mi SSE 6.9 mph - N/A   Clear
7:35 AM 53.6 °F - 48.2 °F 82% 30.05 in 10.0 mi SSE 6.9 mph - N/A   Clear
7:55 AM 55.4 °F - 48.2 °F 77% 30.05 in 10.0 mi SSE 10.4 mph - N/A   Clear
8:15 AM 55.4 °F - 48.2 °F 77% 30.04 in 10.0 mi SSE 12.7 mph - N/A   Clear
8:35 AM 57.2 °F - 48.2 °F 72% 30.03 in 10.0 mi SSE 18.4 mph - N/A   Clear
8:55 AM 59.0 °F - 50.0 °F 72% 30.03 in 10.0 mi SSE 15.0 mph 19.6 mph N/A   Clear
9:15 AM 60.8 °F - 51.8 °F 72% 30.02 in 10.0 mi SSE 18.4 mph 21.9 mph N/A   Clear
9:35 AM 62.6 °F - 51.8 °F 68% 30.01 in 10.0 mi SSE 13.8 mph - N/A   Clear
9:55 AM 64.4 °F - 50.0 °F 59% 30.00 in 10.0 mi SSE 18.4 mph - N/A   Clear
10:15 AM 64.4 °F - 50.0 °F 59% 30.00 in 10.0 mi SSE 17.3 mph - N/A   Clear
10:35 AM 66.2 °F - 51.8 °F 60% 30.00 in 10.0 mi SSE 19.6 mph - N/A   Clear
10:55 AM 68.0 °F - 51.8 °F 56% 29.99 in 10.0 mi SSE 18.4 mph - N/A   Clear
11:16 AM 69.8 °F - 51.8 °F 53% 29.98 in 10.0 mi SSE 20.7 mph 28.8 mph N/A   Clear
11:35 AM 71.6 °F - 51.8 °F 50% 29.97 in 10.0 mi SSE 23.0 mph - N/A   Clear
11:55 AM 71.6 °F - 51.8 °F 50% 29.97 in 10.0 mi South 20.7 mph 26.5 mph N/A   Clear
12:15 PM 73.4 °F - 51.8 °F 47% 29.96 in 10.0 mi SSE 20.7 mph 27.6 mph N/A   Clear
12:35 PM 73.4 °F - 51.8 °F 47% 29.95 in 10.0 mi SSE 17.3 mph 23.0 mph N/A   Clear
12:55 PM 73.4 °F - 53.6 °F 50% 29.94 in 10.0 mi SSE 18.4 mph 28.8 mph N/A   Clear
1:15 PM 75.2 °F - 53.6 °F 47% 29.93 in 10.0 mi South 19.6 mph 25.3 mph N/A   Clear
1:35 PM 77.0 °F - 53.6 °F 44% 29.91 in 10.0 mi SSE 19.6 mph 26.5 mph N/A   Clear
1:55 PM 78.8 °F - 53.6 °F 42% 29.91 in 10.0 mi SSE 18.4 mph 24.2 mph N/A   Clear
2:15 PM 78.8 °F - 53.6 °F 42% 29.90 in 10.0 mi SSE 15.0 mph 25.3 mph N/A   Clear
2:35 PM 78.8 °F - 53.6 °F 42% 29.89 in 10.0 mi SSE 16.1 mph 29.9 mph N/A   Clear
2:55 PM 80.6 °F 80.3 °F 53.6 °F 39% 29.88 in 10.0 mi South 18.4 mph 25.3 mph N/A   Clear
3:15 PM 78.8 °F - 53.6 °F 42% 29.87 in 10.0 mi South 20.7 mph 27.6 mph N/A   Clear
3:35 PM 78.8 °F - 53.6 °F 42% 29.86 in 10.0 mi SSE 18.4 mph 21.9 mph N/A   Clear
3:55 PM 80.6 °F 80.3 °F 53.6 °F 39% 29.85 in 10.0 mi SSE 18.4 mph 25.3 mph N/A   Clear
4:15 PM 78.8 °F - 53.6 °F 42% 29.84 in 10.0 mi SSE 13.8 mph 21.9 mph N/A   Clear
4:35 PM 80.6 °F 80.3 °F 53.6 °F 39% 29.83 in 10.0 mi SSE 16.1 mph 21.9 mph N/A   Clear
4:55 PM 80.6 °F 80.3 °F 53.6 °F 39% 29.82 in 10.0 mi SSE 16.1 mph 23.0 mph N/A   Clear
5:35 PM 78.8 °F - 53.6 °F 42% 29.82 in 10.0 mi SSE 16.1 mph 23.0 mph N/A   Clear
5:55 PM 78.8 °F - 53.6 °F 42% 29.81 in 10.0 mi SSE 16.1 mph 23.0 mph N/A   Clear
6:15 PM 78.8 °F - 53.6 °F 42% 29.80 in 10.0 mi SSE 12.7 mph - N/A   Clear
6:35 PM 77.0 °F - 53.6 °F 44% 29.80 in 10.0 mi SSE 13.8 mph 18.4 mph N/A   Clear
6:55 PM 75.2 °F - 53.6 °F 47% 29.80 in 10.0 mi SSE 11.5 mph - N/A   Clear
7:15 PM 73.4 °F - 53.6 °F 50% 29.80 in 10.0 mi SSE 9.2 mph - N/A   Clear
7:35 PM 73.4 °F - 53.6 °F 50% 29.79 in 10.0 mi SSE 13.8 mph 19.6 mph N/A   Clear
7:55 PM 73.4 °F - 53.6 °F 50% 29.80 in 10.0 mi SSE 15.0 mph 20.7 mph N/A   Clear
8:15 PM 71.6 °F - 53.6 °F 53% 29.80 in 10.0 mi SSE 13.8 mph - N/A   Clear
8:35 PM 71.6 °F - 53.6 °F 53% 29.81 in 10.0 mi SSE 11.5 mph - N/A   Clear
8:56 PM 69.8 °F - 53.6 °F 56% 29.81 in 10.0 mi SSE 15.0 mph - N/A   Clear
9:15 PM 69.8 °F - 53.6 °F 56% 29.81 in 10.0 mi SSE 13.8 mph - N/A   Clear
9:35 PM 68.0 °F - 53.6 °F 60% 29.82 in 10.0 mi SSE 13.8 mph - N/A   Clear
9:55 PM 66.2 °F - 53.6 °F 64% 29.81 in 10.0 mi SSE 12.7 mph - N/A   Clear
10:15 PM 66.2 °F - 53.6 °F 64% 29.81 in 10.0 mi SSE 11.5 mph - N/A   Clear
10:35 PM 64.4 °F - 53.6 °F 68% 29.82 in 10.0 mi South 9.2 mph - N/A   Clear
10:55 PM 62.6 °F - 53.6 °F 72% 29.81 in 10.0 mi South 6.9 mph - N/A   Clear
11:16 PM 64.4 °F - 53.6 °F 68% 29.81 in 10.0 mi SSE 9.2 mph - N/A   Clear
11:35 PM 62.6 °F - 53.6 °F 72% 29.80 in 10.0 mi SSE 8.1 mph - N/A   Clear
11:55 PM 62.6 °F - 53.6 °F 72% 29.80 in 10.0 mi South 6.9 mph - N/A   Clear